sensor_id;sensor_type;location;lat;lon;timestamp;P1;durP1;ratioP1;P2;durP2;ratioP2
29730;SDS011;16639;51.488;0.152;2023-07-13T00:00:27;10.07;;;2.88;;
29730;SDS011;16639;51.488;0.152;2023-07-13T00:02:55;9.43;;;2.30;;
29730;SDS011;16639;51.488;0.152;2023-07-13T00:05:23;7.15;;;2.63;;
29730;SDS011;16639;51.488;0.152;2023-07-13T00:07:51;7.22;;;2.97;;
29730;SDS011;16639;51.488;0.152;2023-07-13T00:10:18;10.70;;;3.20;;
29730;SDS011;16639;51.488;0.152;2023-07-13T00:12:46;12.25;;;3.05;;
29730;SDS011;16639;51.488;0.152;2023-07-13T00:15:18;9.65;;;3.33;;
29730;SDS011;16639;51.488;0.152;2023-07-13T00:17:50;12.97;;;2.60;;
29730;SDS011;16639;51.488;0.152;2023-07-13T00:20:19;4.90;;;2.75;;
29730;SDS011;16639;51.488;0.152;2023-07-13T00:22:52;10.52;;;2.78;;
29730;SDS011;16639;51.488;0.152;2023-07-13T00:25:23;8.18;;;2.47;;
29730;SDS011;16639;51.488;0.152;2023-07-13T00:27:55;9.85;;;3.08;;
29730;SDS011;16639;51.488;0.152;2023-07-13T00:30:23;6.43;;;2.45;;
29730;SDS011;16639;51.488;0.152;2023-07-13T00:32:51;14.80;;;3.17;;
29730;SDS011;16639;51.488;0.152;2023-07-13T00:35:34;11.30;;;3.38;;
29730;SDS011;16639;51.488;0.152;2023-07-13T00:38:01;12.27;;;3.13;;
29730;SDS011;16639;51.488;0.152;2023-07-13T00:40:29;8.88;;;2.90;;
29730;SDS011;16639;51.488;0.152;2023-07-13T00:42:58;14.13;;;3.60;;
29730;SDS011;16639;51.488;0.152;2023-07-13T00:47:55;8.10;;;3.00;;
29730;SDS011;16639;51.488;0.152;2023-07-13T00:50:24;9.68;;;3.42;;
29730;SDS011;16639;51.488;0.152;2023-07-13T00:52:52;7.43;;;2.90;;
29730;SDS011;16639;51.488;0.152;2023-07-13T00:55:21;8.65;;;3.33;;
29730;SDS011;16639;51.488;0.152;2023-07-13T00:57:49;7.18;;;2.85;;
29730;SDS011;16639;51.488;0.152;2023-07-13T01:00:17;7.90;;;3.35;;
29730;SDS011;16639;51.488;0.152;2023-07-13T01:02:46;11.63;;;3.00;;
29730;SDS011;16639;51.488;0.152;2023-07-13T01:05:17;8.50;;;3.10;;
29730;SDS011;16639;51.488;0.152;2023-07-13T01:07:47;10.65;;;3.20;;
29730;SDS011;16639;51.488;0.152;2023-07-13T01:10:17;9.65;;;3.10;;
29730;SDS011;16639;51.488;0.152;2023-07-13T01:12:48;9.68;;;3.55;;
29730;SDS011;16639;51.488;0.152;2023-07-13T01:18:23;8.45;;;3.15;;
29730;SDS011;16639;51.488;0.152;2023-07-13T01:20:53;7.65;;;2.95;;
29730;SDS011;16639;51.488;0.152;2023-07-13T01:23:26;5.10;;;2.53;;
29730;SDS011;16639;51.488;0.152;2023-07-13T01:25:55;6.25;;;2.78;;
29730;SDS011;16639;51.488;0.152;2023-07-13T01:28:23;7.15;;;3.05;;
29730;SDS011;16639;51.488;0.152;2023-07-13T01:30:54;6.40;;;2.97;;
29730;SDS011;16639;51.488;0.152;2023-07-13T01:33:23;7.13;;;3.10;;
29730;SDS011;16639;51.488;0.152;2023-07-13T01:35:51;5.57;;;2.70;;
29730;SDS011;16639;51.488;0.152;2023-07-13T01:38:20;11.20;;;3.25;;
29730;SDS011;16639;51.488;0.152;2023-07-13T01:40:50;10.07;;;2.85;;
29730;SDS011;16639;51.488;0.152;2023-07-13T01:43:18;7.53;;;3.05;;
29730;SDS011;16639;51.488;0.152;2023-07-13T01:45:46;8.15;;;3.75;;
29730;SDS011;16639;51.488;0.152;2023-07-13T01:48:13;9.68;;;2.88;;
29730;SDS011;16639;51.488;0.152;2023-07-13T01:50:41;10.95;;;3.33;;
29730;SDS011;16639;51.488;0.152;2023-07-13T01:53:09;11.70;;;4.22;;
29730;SDS011;16639;51.488;0.152;2023-07-13T01:55:36;12.88;;;4.32;;
29730;SDS011;16639;51.488;0.152;2023-07-13T01:58:04;13.00;;;3.53;;
29730;SDS011;16639;51.488;0.152;2023-07-13T02:00:33;9.48;;;3.58;;
29730;SDS011;16639;51.488;0.152;2023-07-13T02:03:01;8.13;;;3.33;;
29730;SDS011;16639;51.488;0.152;2023-07-13T02:05:28;8.20;;;3.08;;
29730;SDS011;16639;51.488;0.152;2023-07-13T02:07:56;7.78;;;3.53;;
29730;SDS011;16639;51.488;0.152;2023-07-13T02:10:25;11.75;;;3.03;;
29730;SDS011;16639;51.488;0.152;2023-07-13T02:12:52;10.98;;;3.33;;
29730;SDS011;16639;51.488;0.152;2023-07-13T02:15:20;10.40;;;3.60;;
29730;SDS011;16639;51.488;0.152;2023-07-13T02:17:47;12.07;;;3.58;;
29730;SDS011;16639;51.488;0.152;2023-07-13T02:20:15;11.82;;;3.60;;
29730;SDS011;16639;51.488;0.152;2023-07-13T02:22:42;13.85;;;4.00;;
29730;SDS011;16639;51.488;0.152;2023-07-13T02:25:10;9.07;;;3.40;;
29730;SDS011;16639;51.488;0.152;2023-07-13T02:27:38;9.25;;;3.13;;
29730;SDS011;16639;51.488;0.152;2023-07-13T02:30:05;8.10;;;3.03;;
29730;SDS011;16639;51.488;0.152;2023-07-13T02:32:34;8.27;;;3.15;;
29730;SDS011;16639;51.488;0.152;2023-07-13T02:35:02;9.05;;;3.40;;
29730;SDS011;16639;51.488;0.152;2023-07-13T02:37:30;7.45;;;3.00;;
29730;SDS011;16639;51.488;0.152;2023-07-13T02:39:57;17.13;;;3.58;;
29730;SDS011;16639;51.488;0.152;2023-07-13T02:42:25;9.32;;;3.60;;
29730;SDS011;16639;51.488;0.152;2023-07-13T02:44:52;9.23;;;3.30;;
29730;SDS011;16639;51.488;0.152;2023-07-13T02:47:20;9.77;;;2.97;;
29730;SDS011;16639;51.488;0.152;2023-07-13T02:49:48;23.20;;;4.40;;
29730;SDS011;16639;51.488;0.152;2023-07-13T02:52:15;9.57;;;3.63;;
29730;SDS011;16639;51.488;0.152;2023-07-13T02:54:43;8.27;;;2.88;;
29730;SDS011;16639;51.488;0.152;2023-07-13T02:57:10;8.10;;;3.15;;
29730;SDS011;16639;51.488;0.152;2023-07-13T02:59:38;11.50;;;3.38;;
29730;SDS011;16639;51.488;0.152;2023-07-13T03:02:05;10.18;;;3.78;;
29730;SDS011;16639;51.488;0.152;2023-07-13T03:04:34;8.30;;;3.08;;
29730;SDS011;16639;51.488;0.152;2023-07-13T03:07:03;14.32;;;3.50;;
29730;SDS011;16639;51.488;0.152;2023-07-13T03:09:32;11.23;;;3.60;;
29730;SDS011;16639;51.488;0.152;2023-07-13T03:12:01;11.70;;;3.33;;
29730;SDS011;16639;51.488;0.152;2023-07-13T03:14:28;9.30;;;3.58;;
29730;SDS011;16639;51.488;0.152;2023-07-13T03:16:57;8.63;;;3.15;;
29730;SDS011;16639;51.488;0.152;2023-07-13T03:19:24;10.88;;;3.00;;
29730;SDS011;16639;51.488;0.152;2023-07-13T03:21:52;10.27;;;3.08;;
29730;SDS011;16639;51.488;0.152;2023-07-13T03:24:20;10.35;;;3.88;;
29730;SDS011;16639;51.488;0.152;2023-07-13T03:26:47;11.07;;;3.17;;
29730;SDS011;16639;51.488;0.152;2023-07-13T03:29:15;11.77;;;3.72;;
29730;SDS011;16639;51.488;0.152;2023-07-13T03:31:42;4.18;;;2.80;;
29730;SDS011;16639;51.488;0.152;2023-07-13T03:34:10;8.48;;;3.58;;
29730;SDS011;16639;51.488;0.152;2023-07-13T03:36:37;11.70;;;3.55;;
29730;SDS011;16639;51.488;0.152;2023-07-13T03:39:05;10.07;;;3.47;;
29730;SDS011;16639;51.488;0.152;2023-07-13T03:41:35;14.40;;;4.00;;
29730;SDS011;16639;51.488;0.152;2023-07-13T03:44:03;10.18;;;2.95;;
29730;SDS011;16639;51.488;0.152;2023-07-13T03:46:31;12.68;;;3.33;;
29730;SDS011;16639;51.488;0.152;2023-07-13T03:48:58;6.35;;;3.33;;
29730;SDS011;16639;51.488;0.152;2023-07-13T03:51:26;8.05;;;2.78;;
29730;SDS011;16639;51.488;0.152;2023-07-13T03:53:54;11.73;;;5.15;;
29730;SDS011;16639;51.488;0.152;2023-07-13T03:56:22;11.50;;;4.05;;
29730;SDS011;16639;51.488;0.152;2023-07-13T03:58:50;10.52;;;3.13;;
29730;SDS011;16639;51.488;0.152;2023-07-13T04:01:19;5.47;;;2.88;;
29730;SDS011;16639;51.488;0.152;2023-07-13T04:03:48;11.27;;;2.95;;
29730;SDS011;16639;51.488;0.152;2023-07-13T04:06:18;10.38;;;2.85;;
29730;SDS011;16639;51.488;0.152;2023-07-13T04:08:51;6.55;;;3.00;;
29730;SDS011;16639;51.488;0.152;2023-07-13T04:11:21;10.27;;;2.67;;
29730;SDS011;16639;51.488;0.152;2023-07-13T04:13:50;8.27;;;3.22;;
29730;SDS011;16639;51.488;0.152;2023-07-13T04:16:18;10.00;;;4.25;;
29730;SDS011;16639;51.488;0.152;2023-07-13T04:18:47;8.10;;;2.78;;
29730;SDS011;16639;51.488;0.152;2023-07-13T04:21:15;14.50;;;4.32;;
29730;SDS011;16639;51.488;0.152;2023-07-13T04:23:43;8.93;;;3.05;;
29730;SDS011;16639;51.488;0.152;2023-07-13T04:26:11;5.60;;;2.78;;
29730;SDS011;16639;51.488;0.152;2023-07-13T04:28:38;7.65;;;3.15;;
29730;SDS011;16639;51.488;0.152;2023-07-13T04:31:06;7.20;;;3.10;;
29730;SDS011;16639;51.488;0.152;2023-07-13T04:33:34;10.48;;;3.00;;
29730;SDS011;16639;51.488;0.152;2023-07-13T04:36:05;8.23;;;2.95;;
29730;SDS011;16639;51.488;0.152;2023-07-13T04:38:36;8.45;;;3.30;;
29730;SDS011;16639;51.488;0.152;2023-07-13T04:41:04;5.30;;;2.35;;
29730;SDS011;16639;51.488;0.152;2023-07-13T04:43:33;8.32;;;3.53;;
29730;SDS011;16639;51.488;0.152;2023-07-13T04:46:08;6.40;;;3.10;;
29730;SDS011;16639;51.488;0.152;2023-07-13T04:48:39;5.80;;;2.97;;
29730;SDS011;16639;51.488;0.152;2023-07-13T04:51:07;14.02;;;3.20;;
29730;SDS011;16639;51.488;0.152;2023-07-13T04:53:34;8.20;;;2.90;;
29730;SDS011;16639;51.488;0.152;2023-07-13T04:56:02;12.00;;;2.80;;
29730;SDS011;16639;51.488;0.152;2023-07-13T04:58:30;5.00;;;2.38;;
29730;SDS011;16639;51.488;0.152;2023-07-13T05:01:02;13.35;;;3.42;;
29730;SDS011;16639;51.488;0.152;2023-07-13T05:03:31;5.65;;;2.55;;
29730;SDS011;16639;51.488;0.152;2023-07-13T05:06:00;6.95;;;2.83;;
29730;SDS011;16639;51.488;0.152;2023-07-13T05:08:33;8.65;;;3.05;;
29730;SDS011;16639;51.488;0.152;2023-07-13T05:11:01;6.70;;;2.97;;
29730;SDS011;16639;51.488;0.152;2023-07-13T05:13:30;6.85;;;2.90;;
29730;SDS011;16639;51.488;0.152;2023-07-13T05:15:58;7.45;;;3.08;;
29730;SDS011;16639;51.488;0.152;2023-07-13T05:18:31;7.60;;;2.55;;
29730;SDS011;16639;51.488;0.152;2023-07-13T05:21:03;9.88;;;2.67;;
29730;SDS011;16639;51.488;0.152;2023-07-13T05:23:33;4.43;;;2.65;;
29730;SDS011;16639;51.488;0.152;2023-07-13T05:26:02;8.60;;;3.05;;
29730;SDS011;16639;51.488;0.152;2023-07-13T05:28:35;6.82;;;2.58;;
29730;SDS011;16639;51.488;0.152;2023-07-13T05:31:05;9.35;;;2.85;;
29730;SDS011;16639;51.488;0.152;2023-07-13T05:33:35;10.73;;;3.45;;
29730;SDS011;16639;51.488;0.152;2023-07-13T05:36:02;3.30;;;2.40;;
29730;SDS011;16639;51.488;0.152;2023-07-13T05:38:30;7.47;;;2.80;;
29730;SDS011;16639;51.488;0.152;2023-07-13T05:40:57;12.90;;;2.97;;
29730;SDS011;16639;51.488;0.152;2023-07-13T05:43:28;7.47;;;3.58;;
29730;SDS011;16639;51.488;0.152;2023-07-13T05:45:56;12.88;;;3.45;;
29730;SDS011;16639;51.488;0.152;2023-07-13T05:48:23;6.72;;;2.58;;
29730;SDS011;16639;51.488;0.152;2023-07-13T05:50:51;8.15;;;2.97;;
29730;SDS011;16639;51.488;0.152;2023-07-13T05:53:18;6.88;;;2.80;;
29730;SDS011;16639;51.488;0.152;2023-07-13T05:55:46;10.20;;;2.60;;
29730;SDS011;16639;51.488;0.152;2023-07-13T05:58:14;5.40;;;3.05;;
29730;SDS011;16639;51.488;0.152;2023-07-13T06:00:43;9.57;;;3.65;;
29730;SDS011;16639;51.488;0.152;2023-07-13T06:03:10;13.88;;;3.47;;
29730;SDS011;16639;51.488;0.152;2023-07-13T06:05:38;8.55;;;3.40;;
29730;SDS011;16639;51.488;0.152;2023-07-13T06:08:06;6.82;;;3.03;;
29730;SDS011;16639;51.488;0.152;2023-07-13T06:10:35;11.35;;;2.85;;
29730;SDS011;16639;51.488;0.152;2023-07-13T06:13:03;7.57;;;2.67;;
29730;SDS011;16639;51.488;0.152;2023-07-13T06:15:30;10.13;;;3.75;;
29730;SDS011;16639;51.488;0.152;2023-07-13T06:17:58;9.43;;;3.03;;
29730;SDS011;16639;51.488;0.152;2023-07-13T06:20:26;11.57;;;2.97;;
29730;SDS011;16639;51.488;0.152;2023-07-13T06:22:53;10.50;;;3.25;;
29730;SDS011;16639;51.488;0.152;2023-07-13T06:25:20;5.90;;;3.30;;
29730;SDS011;16639;51.488;0.152;2023-07-13T06:27:48;8.63;;;3.42;;
29730;SDS011;16639;51.488;0.152;2023-07-13T06:30:15;8.30;;;3.25;;
29730;SDS011;16639;51.488;0.152;2023-07-13T06:32:43;5.65;;;2.50;;
29730;SDS011;16639;51.488;0.152;2023-07-13T06:35:10;4.85;;;2.42;;
29730;SDS011;16639;51.488;0.152;2023-07-13T06:37:39;10.57;;;2.90;;
29730;SDS011;16639;51.488;0.152;2023-07-13T06:40:07;8.90;;;2.80;;
29730;SDS011;16639;51.488;0.152;2023-07-13T06:42:35;9.48;;;3.03;;
29730;SDS011;16639;51.488;0.152;2023-07-13T06:45:02;8.45;;;3.30;;
29730;SDS011;16639;51.488;0.152;2023-07-13T06:47:30;9.15;;;2.85;;
29730;SDS011;16639;51.488;0.152;2023-07-13T06:50:00;10.13;;;2.97;;
29730;SDS011;16639;51.488;0.152;2023-07-13T06:52:27;12.82;;;3.30;;
29730;SDS011;16639;51.488;0.152;2023-07-13T06:54:55;11.95;;;3.33;;
29730;SDS011;16639;51.488;0.152;2023-07-13T06:57:22;5.05;;;2.88;;
29730;SDS011;16639;51.488;0.152;2023-07-13T06:59:50;10.88;;;2.80;;
29730;SDS011;16639;51.488;0.152;2023-07-13T07:02:17;10.52;;;2.92;;
29730;SDS011;16639;51.488;0.152;2023-07-13T07:04:45;7.50;;;2.90;;
29730;SDS011;16639;51.488;0.152;2023-07-13T07:07:12;5.50;;;2.78;;
29730;SDS011;16639;51.488;0.152;2023-07-13T07:09:39;8.98;;;2.88;;
29730;SDS011;16639;51.488;0.152;2023-07-13T07:12:07;14.25;;;3.33;;
29730;SDS011;16639;51.488;0.152;2023-07-13T07:14:35;9.55;;;2.55;;
29730;SDS011;16639;51.488;0.152;2023-07-13T07:17:02;10.20;;;2.55;;
29730;SDS011;16639;51.488;0.152;2023-07-13T07:19:30;5.82;;;2.88;;
29730;SDS011;16639;51.488;0.152;2023-07-13T07:21:57;10.52;;;3.03;;
29730;SDS011;16639;51.488;0.152;2023-07-13T07:24:25;5.82;;;2.92;;
29730;SDS011;16639;51.488;0.152;2023-07-13T07:26:53;6.50;;;3.00;;
29730;SDS011;16639;51.488;0.152;2023-07-13T07:29:23;5.45;;;2.70;;
29730;SDS011;16639;51.488;0.152;2023-07-13T07:31:55;5.80;;;2.30;;
29730;SDS011;16639;51.488;0.152;2023-07-13T07:34:26;8.68;;;3.13;;
29730;SDS011;16639;51.488;0.152;2023-07-13T07:36:53;10.82;;;3.15;;
29730;SDS011;16639;51.488;0.152;2023-07-13T07:39:24;7.28;;;2.58;;
29730;SDS011;16639;51.488;0.152;2023-07-13T07:41:51;8.80;;;2.70;;
29730;SDS011;16639;51.488;0.152;2023-07-13T07:44:23;11.85;;;3.85;;
29730;SDS011;16639;51.488;0.152;2023-07-13T07:46:50;8.13;;;2.92;;
29730;SDS011;16639;51.488;0.152;2023-07-13T07:49:18;5.30;;;2.40;;
29730;SDS011;16639;51.488;0.152;2023-07-13T07:51:45;6.20;;;2.60;;
29730;SDS011;16639;51.488;0.152;2023-07-13T07:54:13;5.47;;;2.28;;
29730;SDS011;16639;51.488;0.152;2023-07-13T07:57:01;10.00;;;3.28;;
29730;SDS011;16639;51.488;0.152;2023-07-13T07:59:48;13.02;;;3.00;;
29730;SDS011;16639;51.488;0.152;2023-07-13T08:02:19;8.00;;;2.65;;
29730;SDS011;16639;51.488;0.152;2023-07-13T08:04:49;7.00;;;2.72;;
29730;SDS011;16639;51.488;0.152;2023-07-13T08:07:20;6.18;;;2.50;;
29730;SDS011;16639;51.488;0.152;2023-07-13T08:09:47;8.20;;;3.05;;
29730;SDS011;16639;51.488;0.152;2023-07-13T08:12:19;9.93;;;2.85;;
29730;SDS011;16639;51.488;0.152;2023-07-13T08:15:06;6.55;;;3.15;;
29730;SDS011;16639;51.488;0.152;2023-07-13T08:17:38;7.13;;;2.63;;
29730;SDS011;16639;51.488;0.152;2023-07-13T08:20:06;6.35;;;2.30;;
29730;SDS011;16639;51.488;0.152;2023-07-13T08:22:35;6.50;;;2.05;;
29730;SDS011;16639;51.488;0.152;2023-07-13T08:25:03;6.10;;;2.45;;
29730;SDS011;16639;51.488;0.152;2023-07-13T08:27:30;7.35;;;2.50;;
29730;SDS011;16639;51.488;0.152;2023-07-13T08:29:58;9.88;;;2.85;;
29730;SDS011;16639;51.488;0.152;2023-07-13T08:32:26;12.15;;;3.33;;
29730;SDS011;16639;51.488;0.152;2023-07-13T08:34:53;5.43;;;2.53;;
29730;SDS011;16639;51.488;0.152;2023-07-13T08:37:20;5.32;;;3.08;;
29730;SDS011;16639;51.488;0.152;2023-07-13T08:39:48;7.22;;;2.58;;
29730;SDS011;16639;51.488;0.152;2023-07-13T08:47:54;12.07;;;3.22;;
29730;SDS011;16639;51.488;0.152;2023-07-13T08:50:34;8.35;;;3.10;;
29730;SDS011;16639;51.488;0.152;2023-07-13T08:53:26;5.25;;;2.28;;
29730;SDS011;16639;51.488;0.152;2023-07-13T08:56:11;6.38;;;2.58;;
29730;SDS011;16639;51.488;0.152;2023-07-13T08:58:46;8.93;;;2.55;;
29730;SDS011;16639;51.488;0.152;2023-07-13T09:04:26;9.38;;;2.80;;
29730;SDS011;16639;51.488;0.152;2023-07-13T09:10:00;6.45;;;2.53;;
29730;SDS011;16639;51.488;0.152;2023-07-13T09:16:04;5.60;;;3.10;;
29730;SDS011;16639;51.488;0.152;2023-07-13T09:18:33;7.93;;;2.00;;
29730;SDS011;16639;51.488;0.152;2023-07-13T09:23:40;7.72;;;2.47;;
29730;SDS011;16639;51.488;0.152;2023-07-13T09:26:12;6.25;;;2.50;;
29730;SDS011;16639;51.488;0.152;2023-07-13T09:28:52;6.90;;;2.33;;
29730;SDS011;16639;51.488;0.152;2023-07-13T09:31:24;4.63;;;2.00;;
29730;SDS011;16639;51.488;0.152;2023-07-13T09:34:01;3.25;;;1.77;;
29730;SDS011;16639;51.488;0.152;2023-07-13T09:36:30;5.45;;;1.85;;
29730;SDS011;16639;51.488;0.152;2023-07-13T09:39:04;5.10;;;1.95;;
29730;SDS011;16639;51.488;0.152;2023-07-13T09:41:49;8.43;;;2.05;;
29730;SDS011;16639;51.488;0.152;2023-07-13T09:44:49;9.35;;;1.63;;
29730;SDS011;16639;51.488;0.152;2023-07-13T09:47:29;3.50;;;1.67;;
29730;SDS011;16639;51.488;0.152;2023-07-13T09:50:04;8.88;;;1.65;;
29730;SDS011;16639;51.488;0.152;2023-07-13T09:52:46;5.45;;;1.88;;
29730;SDS011;16639;51.488;0.152;2023-07-13T09:55:23;8.85;;;1.90;;
29730;SDS011;16639;51.488;0.152;2023-07-13T09:57:51;6.30;;;2.03;;
29730;SDS011;16639;51.488;0.152;2023-07-13T10:00:21;4.85;;;2.13;;
29730;SDS011;16639;51.488;0.152;2023-07-13T10:03:00;8.52;;;2.72;;
29730;SDS011;16639;51.488;0.152;2023-07-13T10:05:43;6.32;;;1.88;;
29730;SDS011;16639;51.488;0.152;2023-07-13T10:08:20;5.18;;;1.77;;
29730;SDS011;16639;51.488;0.152;2023-07-13T10:10:58;4.65;;;1.98;;
29730;SDS011;16639;51.488;0.152;2023-07-13T10:13:37;4.25;;;2.08;;
29730;SDS011;16639;51.488;0.152;2023-07-13T10:16:10;5.47;;;2.30;;
29730;SDS011;16639;51.488;0.152;2023-07-13T10:18:43;3.83;;;2.00;;
29730;SDS011;16639;51.488;0.152;2023-07-13T10:21:17;9.98;;;2.20;;
29730;SDS011;16639;51.488;0.152;2023-07-13T10:24:44;6.00;;;1.88;;
29730;SDS011;16639;51.488;0.152;2023-07-13T10:27:05;6.63;;;2.33;;
29730;SDS011;16639;51.488;0.152;2023-07-13T10:29:47;7.38;;;1.70;;
29730;SDS011;16639;51.488;0.152;2023-07-13T10:32:18;6.45;;;2.25;;
29730;SDS011;16639;51.488;0.152;2023-07-13T10:34:50;3.65;;;1.73;;
29730;SDS011;16639;51.488;0.152;2023-07-13T10:37:20;5.45;;;2.45;;
29730;SDS011;16639;51.488;0.152;2023-07-13T10:39:55;3.60;;;1.70;;
29730;SDS011;16639;51.488;0.152;2023-07-13T10:42:28;2.80;;;1.58;;
29730;SDS011;16639;51.488;0.152;2023-07-13T10:45:17;2.88;;;1.50;;
29730;SDS011;16639;51.488;0.152;2023-07-13T10:47:46;6.32;;;1.60;;
29730;SDS011;16639;51.488;0.152;2023-07-13T10:50:19;2.38;;;1.50;;
29730;SDS011;16639;51.488;0.152;2023-07-13T10:52:55;3.50;;;1.27;;
29730;SDS011;16639;51.488;0.152;2023-07-13T10:55:36;2.65;;;1.55;;
29730;SDS011;16639;51.488;0.152;2023-07-13T10:58:12;4.47;;;2.13;;
29730;SDS011;16639;51.488;0.152;2023-07-13T11:01:12;4.10;;;1.50;;
29730;SDS011;16639;51.488;0.152;2023-07-13T11:03:50;3.75;;;1.65;;
29730;SDS011;16639;51.488;0.152;2023-07-13T11:12:07;2.22;;;1.50;;
29730;SDS011;16639;51.488;0.152;2023-07-13T11:14:43;3.15;;;1.65;;
29730;SDS011;16639;51.488;0.152;2023-07-13T11:17:35;3.83;;;1.20;;
29730;SDS011;16639;51.488;0.152;2023-07-13T11:25:38;3.33;;;1.83;;
29730;SDS011;16639;51.488;0.152;2023-07-13T11:35:53;4.90;;;1.70;;
29730;SDS011;16639;51.488;0.152;2023-07-13T11:38:28;6.70;;;1.88;;
29730;SDS011;16639;51.488;0.152;2023-07-13T11:41:01;5.03;;;1.70;;
29730;SDS011;16639;51.488;0.152;2023-07-13T11:43:34;4.15;;;1.75;;
29730;SDS011;16639;51.488;0.152;2023-07-13T11:46:12;4.22;;;2.15;;
29730;SDS011;16639;51.488;0.152;2023-07-13T11:48:41;7.88;;;1.75;;
29730;SDS011;16639;51.488;0.152;2023-07-13T11:51:15;2.00;;;1.23;;
29730;SDS011;16639;51.488;0.152;2023-07-13T11:53:49;2.90;;;1.70;;
29730;SDS011;16639;51.488;0.152;2023-07-13T11:56:18;2.10;;;1.52;;
29730;SDS011;16639;51.488;0.152;2023-07-13T11:58:50;3.35;;;1.48;;
29730;SDS011;16639;51.488;0.152;2023-07-13T12:01:21;7.75;;;3.15;;
29730;SDS011;16639;51.488;0.152;2023-07-13T12:03:52;2.55;;;1.45;;
29730;SDS011;16639;51.488;0.152;2023-07-13T12:08:56;3.97;;;1.67;;
29730;SDS011;16639;51.488;0.152;2023-07-13T12:11:30;2.33;;;1.25;;
29730;SDS011;16639;51.488;0.152;2023-07-13T12:14:02;2.30;;;1.30;;
29730;SDS011;16639;51.488;0.152;2023-07-13T12:16:31;3.53;;;1.30;;
29730;SDS011;16639;51.488;0.152;2023-07-13T12:19:00;3.95;;;1.52;;
29730;SDS011;16639;51.488;0.152;2023-07-13T12:21:33;2.28;;;1.50;;
29730;SDS011;16639;51.488;0.152;2023-07-13T12:24:11;1.70;;;1.55;;
29730;SDS011;16639;51.488;0.152;2023-07-13T12:26:42;4.03;;;1.73;;
29730;SDS011;16639;51.488;0.152;2023-07-13T12:29:15;3.08;;;1.55;;
29730;SDS011;16639;51.488;0.152;2023-07-13T12:31:44;3.30;;;1.20;;
29730;SDS011;16639;51.488;0.152;2023-07-13T12:34:14;5.22;;;1.83;;
29730;SDS011;16639;51.488;0.152;2023-07-13T12:36:47;2.67;;;1.83;;
29730;SDS011;16639;51.488;0.152;2023-07-13T12:39:24;3.42;;;1.90;;
29730;SDS011;16639;51.488;0.152;2023-07-13T12:44:53;3.00;;;1.75;;
29730;SDS011;16639;51.488;0.152;2023-07-13T12:47:38;4.05;;;1.60;;
29730;SDS011;16639;51.488;0.152;2023-07-13T12:50:14;6.05;;;1.80;;
29730;SDS011;16639;51.488;0.152;2023-07-13T12:52:44;3.33;;;1.77;;
29730;SDS011;16639;51.488;0.152;2023-07-13T12:55:20;3.85;;;1.88;;
29730;SDS011;16639;51.488;0.152;2023-07-13T12:57:52;3.50;;;1.73;;
29730;SDS011;16639;51.488;0.152;2023-07-13T13:02:56;3.22;;;1.73;;
29730;SDS011;16639;51.488;0.152;2023-07-13T13:05:41;3.47;;;1.52;;
29730;SDS011;16639;51.488;0.152;2023-07-13T13:08:13;2.85;;;1.83;;
29730;SDS011;16639;51.488;0.152;2023-07-13T13:10:40;2.33;;;1.88;;
29730;SDS011;16639;51.488;0.152;2023-07-13T13:13:08;2.78;;;1.60;;
29730;SDS011;16639;51.488;0.152;2023-07-13T13:15:38;3.00;;;1.77;;
29730;SDS011;16639;51.488;0.152;2023-07-13T13:18:11;4.20;;;1.85;;
29730;SDS011;16639;51.488;0.152;2023-07-13T13:20:46;3.67;;;1.73;;
29730;SDS011;16639;51.488;0.152;2023-07-13T13:23:14;4.32;;;1.90;;
29730;SDS011;16639;51.488;0.152;2023-07-13T13:25:49;3.10;;;1.30;;
29730;SDS011;16639;51.488;0.152;2023-07-13T13:28:20;4.63;;;2.03;;
29730;SDS011;16639;51.488;0.152;2023-07-13T13:30:48;4.63;;;2.17;;
29730;SDS011;16639;51.488;0.152;2023-07-13T13:33:17;3.22;;;1.10;;
29730;SDS011;16639;51.488;0.152;2023-07-13T13:35:47;3.15;;;1.30;;
29730;SDS011;16639;51.488;0.152;2023-07-13T13:38:16;1.88;;;1.58;;
29730;SDS011;16639;51.488;0.152;2023-07-13T13:40:45;5.20;;;1.58;;
29730;SDS011;16639;51.488;0.152;2023-07-13T13:43:17;2.83;;;1.48;;
29730;SDS011;16639;51.488;0.152;2023-07-13T13:45:45;4.82;;;1.52;;
29730;SDS011;16639;51.488;0.152;2023-07-13T13:48:14;1.30;;;1.02;;
29730;SDS011;16639;51.488;0.152;2023-07-13T13:50:45;4.65;;;1.20;;
29730;SDS011;16639;51.488;0.152;2023-07-13T13:53:14;3.55;;;1.52;;
29730;SDS011;16639;51.488;0.152;2023-07-13T13:55:41;2.88;;;1.10;;
29730;SDS011;16639;51.488;0.152;2023-07-13T13:58:09;2.30;;;1.33;;
29730;SDS011;16639;51.488;0.152;2023-07-13T14:00:37;4.57;;;1.60;;
29730;SDS011;16639;51.488;0.152;2023-07-13T14:03:13;2.95;;;1.27;;
29730;SDS011;16639;51.488;0.152;2023-07-13T14:05:46;6.03;;;1.50;;
29730;SDS011;16639;51.488;0.152;2023-07-13T14:08:15;2.30;;;1.38;;
29730;SDS011;16639;51.488;0.152;2023-07-13T14:10:45;4.53;;;1.67;;
29730;SDS011;16639;51.488;0.152;2023-07-13T14:13:17;2.92;;;1.58;;
29730;SDS011;16639;51.488;0.152;2023-07-13T14:15:48;3.50;;;1.23;;
29730;SDS011;16639;51.488;0.152;2023-07-13T14:18:15;2.42;;;1.33;;
29730;SDS011;16639;51.488;0.152;2023-07-13T14:20:45;6.57;;;1.88;;
29730;SDS011;16639;51.488;0.152;2023-07-13T14:23:14;2.53;;;1.63;;
29730;SDS011;16639;51.488;0.152;2023-07-13T14:25:42;2.92;;;1.85;;
29730;SDS011;16639;51.488;0.152;2023-07-13T14:30:41;5.28;;;1.83;;
29730;SDS011;16639;51.488;0.152;2023-07-13T14:33:09;5.05;;;2.20;;
29730;SDS011;16639;51.488;0.152;2023-07-13T14:35:38;6.63;;;2.22;;
29730;SDS011;16639;51.488;0.152;2023-07-13T14:38:07;6.38;;;2.47;;
29730;SDS011;16639;51.488;0.152;2023-07-13T14:40:38;4.22;;;1.90;;
29730;SDS011;16639;51.488;0.152;2023-07-13T14:43:12;4.57;;;2.30;;
29730;SDS011;16639;51.488;0.152;2023-07-13T14:45:41;8.00;;;2.22;;
29730;SDS011;16639;51.488;0.152;2023-07-13T14:48:20;8.30;;;2.28;;
29730;SDS011;16639;51.488;0.152;2023-07-13T14:50:51;4.80;;;1.92;;
29730;SDS011;16639;51.488;0.152;2023-07-13T14:53:22;3.45;;;1.90;;
29730;SDS011;16639;51.488;0.152;2023-07-13T14:55:52;5.95;;;2.05;;
29730;SDS011;16639;51.488;0.152;2023-07-13T14:58:19;3.53;;;2.03;;
29730;SDS011;16639;51.488;0.152;2023-07-13T15:00:47;7.22;;;2.30;;
29730;SDS011;16639;51.488;0.152;2023-07-13T15:03:18;5.30;;;2.42;;
29730;SDS011;16639;51.488;0.152;2023-07-13T15:05:51;5.13;;;2.10;;
29730;SDS011;16639;51.488;0.152;2023-07-13T15:08:20;3.55;;;2.13;;
29730;SDS011;16639;51.488;0.152;2023-07-13T15:10:47;5.18;;;2.30;;
29730;SDS011;16639;51.488;0.152;2023-07-13T15:13:21;4.53;;;1.90;;
29730;SDS011;16639;51.488;0.152;2023-07-13T15:15:51;4.97;;;2.13;;
29730;SDS011;16639;51.488;0.152;2023-07-13T15:18:20;3.22;;;1.80;;
29730;SDS011;16639;51.488;0.152;2023-07-13T15:20:50;3.50;;;1.70;;
29730;SDS011;16639;51.488;0.152;2023-07-13T15:23:22;2.78;;;1.65;;
29730;SDS011;16639;51.488;0.152;2023-07-13T15:25:50;4.68;;;1.85;;
29730;SDS011;16639;51.488;0.152;2023-07-13T15:28:18;4.55;;;2.45;;
29730;SDS011;16639;51.488;0.152;2023-07-13T15:30:47;6.93;;;2.63;;
29730;SDS011;16639;51.488;0.152;2023-07-13T15:33:34;5.63;;;2.50;;
29730;SDS011;16639;51.488;0.152;2023-07-13T15:36:03;7.60;;;2.83;;
29730;SDS011;16639;51.488;0.152;2023-07-13T15:38:31;5.97;;;2.70;;
29730;SDS011;16639;51.488;0.152;2023-07-13T15:40:59;6.15;;;3.00;;
29730;SDS011;16639;51.488;0.152;2023-07-13T15:43:28;6.82;;;3.17;;
29730;SDS011;16639;51.488;0.152;2023-07-13T15:46:00;7.00;;;3.95;;
29730;SDS011;16639;51.488;0.152;2023-07-13T15:48:28;6.57;;;3.25;;
29730;SDS011;16639;51.488;0.152;2023-07-13T15:50:59;5.78;;;2.33;;
29730;SDS011;16639;51.488;0.152;2023-07-13T15:53:29;4.40;;;2.30;;
29730;SDS011;16639;51.488;0.152;2023-07-13T15:55:59;5.00;;;2.28;;
29730;SDS011;16639;51.488;0.152;2023-07-13T15:58:28;8.07;;;3.05;;